createdAt,value
2018-07-11T10:02:28.738Z,52.40
2018-07-11T10:04:57.292Z,43.90
2018-07-11T10:07:26.586Z,40.90
2018-07-11T10:09:55.718Z,39.50
2018-07-11T10:12:24.401Z,39.60
2018-07-11T10:14:52.908Z,41.30
2018-07-11T10:19:49.838Z,40.00
2018-07-11T10:23:30.228Z,43.90
2018-07-11T10:30:55.353Z,45.00
2018-07-11T10:33:23.944Z,47.00
2018-07-11T10:35:52.520Z,46.50
2018-07-11T10:38:21.254Z,46.10
2018-07-11T10:40:49.847Z,46.20
2018-07-11T10:43:18.447Z,45.40
2018-07-11T10:45:47.745Z,45.70
2018-07-11T10:48:16.509Z,46.90
2018-07-11T10:50:45.147Z,47.00
2018-07-11T10:53:14.069Z,45.90
2018-07-11T10:55:42.717Z,46.10
2018-07-11T10:58:12.738Z,44.20
2018-07-11T11:00:41.813Z,43.50
2018-07-11T11:03:10.497Z,45.20
2018-07-11T11:05:39.013Z,47.60
2018-07-11T11:10:36.072Z,47.90
2018-07-11T11:13:04.796Z,45.90
2018-07-11T11:15:33.364Z,46.50
2018-07-11T11:18:02.033Z,47.00
2018-07-11T11:20:30.742Z,47.90
2018-07-11T11:22:59.441Z,48.80
2018-07-11T11:25:28.150Z,50.00
2018-07-11T11:27:58.221Z,50.60
2018-07-11T11:30:26.869Z,50.40
2018-07-11T11:35:24.090Z,49.90
2018-07-11T11:37:52.769Z,53.10
2018-07-11T11:40:21.427Z,54.70
2018-07-11T11:42:50.115Z,53.70
2018-07-11T11:45:19.935Z,55.60
2018-07-11T11:47:48.647Z,55.40
2018-07-11T11:50:17.213Z,53.80
2018-07-11T11:52:45.947Z,53.60
2018-07-11T11:55:14.757Z,57.00
2018-07-11T11:57:43.320Z,52.70
2018-07-11T12:02:40.634Z,51.60
2018-07-11T12:05:09.454Z,51.80
2018-07-11T12:07:38.166Z,51.90
2018-07-11T12:10:06.900Z,52.00
2018-07-11T12:12:35.585Z,51.90
2018-07-11T12:15:04.644Z,52.40
2018-07-11T12:17:33.292Z,53.70
2018-07-11T12:20:02.015Z,51.70
2018-07-11T12:22:30.627Z,47.50
2018-07-11T12:24:59.473Z,45.10
2018-07-11T12:27:27.949Z,42.20
2018-07-11T12:29:56.570Z,41.20
2018-07-11T12:32:29.852Z,40.90
2018-07-11T12:34:58.680Z,40.60
2018-07-11T12:37:31.767Z,42.60
2018-07-11T12:40:00.611Z,45.40
2018-07-11T12:42:29.284Z,47.00
2018-07-11T12:44:57.877Z,47.60
2018-07-11T12:47:31.946Z,46.70
2018-07-11T12:50:00.524Z,47.30
2018-07-11T12:52:29.470Z,48.40
2018-07-11T12:54:58.223Z,49.60
2018-07-11T12:57:26.921Z,49.60
2018-07-11T12:59:55.488Z,49.40
2018-07-11T13:02:24.152Z,49.80
2018-07-11T13:04:53.267Z,50.30
2018-07-11T13:07:22.018Z,50.10
2018-07-11T13:09:50.679Z,49.50
2018-07-11T13:12:19.273Z,48.60
2018-07-11T13:14:47.837Z,49.10
2018-07-11T13:17:16.450Z,50.10
2018-07-11T13:19:45.093Z,49.90
2018-07-11T13:22:13.891Z,51.20
2018-07-11T13:24:43.247Z,50.90
2018-07-11T13:29:40.187Z,50.50
2018-07-11T13:32:08.864Z,51.90
2018-07-11T13:34:38.019Z,51.80
2018-07-11T13:37:07.049Z,53.80
2018-07-11T13:39:35.823Z,54.40
2018-07-11T13:42:04.440Z,54.50
2018-07-11T13:44:33.070Z,54.20
2018-07-11T13:47:06.005Z,54.20
2018-07-11T13:49:34.670Z,54.30
2018-07-11T13:52:03.330Z,54.30
2018-07-11T13:54:34.746Z,54.20
2018-07-11T13:57:04.104Z,54.90
2018-07-11T13:59:32.727Z,54.90
2018-07-11T14:02:01.398Z,54.90
2018-07-11T14:04:30.018Z,55.10
2018-07-11T14:06:58.873Z,55.20
2018-07-11T14:09:27.555Z,55.00
2018-07-11T14:11:56.290Z,54.70
2018-07-11T14:14:24.953Z,54.90
2018-07-11T14:16:53.473Z,54.50
2018-07-11T14:19:22.031Z,54.50
2018-07-11T14:21:50.819Z,54.60
2018-07-11T14:24:19.577Z,54.50
2018-07-11T14:26:48.068Z,54.60
2018-07-11T14:29:16.647Z,54.40
2018-07-11T14:31:45.192Z,54.60
2018-07-11T14:34:13.709Z,54.70
2018-07-11T14:36:42.520Z,54.50
2018-07-11T14:39:11.329Z,54.30
2018-07-11T14:41:40.037Z,54.20
2018-07-11T14:44:08.716Z,54.30
2018-07-11T14:46:37.608Z,54.30
2018-07-11T14:49:06.241Z,54.40
2018-07-11T14:51:35.007Z,54.30
2018-07-11T14:54:03.392Z,54.30
2018-07-11T14:56:32.003Z,54.60
2018-07-11T14:59:00.622Z,54.70
2018-07-11T15:01:29.272Z,54.50
2018-07-11T15:03:57.868Z,54.50
2018-07-11T15:06:26.551Z,54.20
2018-07-11T15:08:56.180Z,54.30
2018-07-11T15:11:24.973Z,54.30
2018-07-11T15:16:22.006Z,54.10
2018-07-11T15:18:57.148Z,54.00
2018-07-11T15:21:25.615Z,53.60
2018-07-11T15:23:54.150Z,53.30
2018-07-11T15:26:23.234Z,53.10
2018-07-11T15:28:51.879Z,52.90
2018-07-11T15:31:20.339Z,52.90
2018-07-11T15:33:48.876Z,52.70
2018-07-11T15:36:17.534Z,52.60
2018-07-11T15:38:46.051Z,52.60
2018-07-11T15:41:14.797Z,52.80
2018-07-11T15:43:43.353Z,52.90
2018-07-11T15:46:11.885Z,53.10
2018-07-11T15:48:40.470Z,53.20
2018-07-11T15:53:37.796Z,53.50
2018-07-11T15:56:06.299Z,53.60
2018-07-11T15:58:37.782Z,53.90
2018-07-11T16:01:09.083Z,54.30
2018-07-11T16:03:42.486Z,54.40
2018-07-11T16:06:11.000Z,54.40
2018-07-11T16:08:42.602Z,54.80
2018-07-11T16:11:11.077Z,55.30
2018-07-11T16:13:39.607Z,55.70
2018-07-11T16:16:08.200Z,56.30
2018-07-11T16:18:37.250Z,57.00
2018-07-11T16:21:06.285Z,57.40
2018-07-11T16:26:03.395Z,58.00
2018-07-11T16:28:32.276Z,58.00
2018-07-11T16:31:00.922Z,58.30
2018-07-11T16:33:29.563Z,58.90
2018-07-11T16:35:58.182Z,59.20
2018-07-11T16:38:26.754Z,59.40
2018-07-11T16:40:55.386Z,59.50
2018-07-11T16:43:23.928Z,59.60
2018-07-11T16:45:53.291Z,59.80
2018-07-11T16:48:22.290Z,60.10
2018-07-11T16:50:50.866Z,60.10
2018-07-11T16:53:19.463Z,60.30
2018-07-11T16:55:48.174Z,60.70
2018-07-11T16:58:18.589Z,61.10
2018-07-11T17:00:50.915Z,61.70
2018-07-11T17:03:19.561Z,61.50
2018-07-11T17:05:51.311Z,62.30
2018-07-11T17:08:29.035Z,62.20
2018-07-11T17:11:09.407Z,62.70
2018-07-11T17:13:38.035Z,62.70
2018-07-11T17:16:06.993Z,63.20
2018-07-11T17:18:44.587Z,63.60
2018-07-11T17:21:22.486Z,63.70
2018-07-11T17:23:53.571Z,64.30
2018-07-11T17:26:25.916Z,65.00
2018-07-11T17:28:56.479Z,64.80
2018-07-11T17:31:25.548Z,65.00
2018-07-11T17:33:54.331Z,65.60
2018-07-11T17:36:22.928Z,65.90
2018-07-11T17:38:51.777Z,65.70
2018-07-11T17:41:20.408Z,66.30
2018-07-11T17:43:51.946Z,66.00
2018-07-11T17:46:22.713Z,66.00
2018-07-11T17:48:59.637Z,66.40
2018-07-11T17:52:35.984Z,66.40
2018-07-11T17:55:07.689Z,66.60
2018-07-11T17:57:44.785Z,66.50
2018-07-11T18:00:20.674Z,66.60
2018-07-11T18:02:54.765Z,66.60
2018-07-11T18:05:32.345Z,66.40
2018-07-11T18:08:07.525Z,66.80
2018-07-11T18:10:46.892Z,66.90
2018-07-11T18:13:33.602Z,67.30
2018-07-11T18:17:12.074Z,67.80
2018-07-11T18:20:09.694Z,68.40
2018-07-11T18:24:49.580Z,68.80
2018-07-11T18:27:29.543Z,69.30
2018-07-11T18:30:12.978Z,69.70
2018-07-11T18:32:50.605Z,69.90
2018-07-11T18:35:32.813Z,70.20
2018-07-11T18:38:12.362Z,70.30
2018-07-11T18:41:21.841Z,70.80
2018-07-11T18:46:06.972Z,71.00
2018-07-11T18:50:49.195Z,71.30
2018-07-11T18:53:43.916Z,71.50
2018-07-11T18:56:19.954Z,72.00
2018-07-11T18:58:57.678Z,72.20
2018-07-11T19:01:40.852Z,72.40
2018-07-11T19:05:23.091Z,72.70
2018-07-11T19:07:55.853Z,72.90
2018-07-11T19:10:34.703Z,73.00
2018-07-11T19:13:18.968Z,73.10
2018-07-11T19:15:50.467Z,73.10
2018-07-11T19:18:29.414Z,73.20
2018-07-11T19:22:04.112Z,73.40
2018-07-11T19:24:45.127Z,73.40
2018-07-11T19:27:22.137Z,73.70
2018-07-11T19:30:04.845Z,73.60
2018-07-11T19:34:48.626Z,73.60
2018-07-11T19:37:24.797Z,73.80
2018-07-11T19:40:02.944Z,74.10
2018-07-11T19:42:39.216Z,74.20
2018-07-11T19:45:15.046Z,74.20
2018-07-11T19:48:01.908Z,74.40
2018-07-11T19:50:41.597Z,75.00
2018-07-11T19:53:17.584Z,74.70
2018-07-11T19:56:54.541Z,74.60
2018-07-11T19:59:23.042Z,75.00
2018-07-11T20:01:51.559Z,75.40
2018-07-11T20:04:20.100Z,76.00
2018-07-11T20:06:49.199Z,75.70
2018-07-11T20:09:17.856Z,75.70
2018-07-11T20:11:46.468Z,75.70
2018-07-11T20:14:15.117Z,75.90
2018-07-11T20:16:43.729Z,76.10
2018-07-11T20:19:12.212Z,76.40
2018-07-11T20:21:40.985Z,76.40
2018-07-11T20:24:09.494Z,76.40
2018-07-11T20:26:38.020Z,76.50
2018-07-11T20:29:06.608Z,76.20
2018-07-11T20:34:03.499Z,76.10
2018-07-11T20:36:32.091Z,76.80
2018-07-11T20:39:00.673Z,76.20
2018-07-11T20:41:29.253Z,76.40
2018-07-11T20:43:57.743Z,76.50
2018-07-11T20:48:55.338Z,76.60
2018-07-11T20:51:23.905Z,77.00
2018-07-11T20:53:53.227Z,77.30
2018-07-11T20:56:21.727Z,77.60
2018-07-11T20:59:01.623Z,77.80
2018-07-11T21:01:41.452Z,77.80
2018-07-11T21:05:03.882Z,77.60
2018-07-11T21:08:13.901Z,77.90
2018-07-11T21:12:58.193Z,78.10
2018-07-11T21:15:44.063Z,78.10
2018-07-11T21:19:17.886Z,78.30
2018-07-11T21:21:46.330Z,78.40
2018-07-11T21:24:14.980Z,78.50
2018-07-11T21:26:43.518Z,78.60
2018-07-11T21:29:12.073Z,78.90
2018-07-11T21:31:41.248Z,79.10
2018-07-11T21:34:09.842Z,79.40
2018-07-11T21:36:38.261Z,79.40
2018-07-11T21:39:06.799Z,79.80
2018-07-11T21:44:03.484Z,80.20
2018-07-11T21:46:32.997Z,80.50
2018-07-11T21:49:01.524Z,80.70
2018-07-11T21:51:29.933Z,80.70
2018-07-11T21:53:58.470Z,80.90
2018-07-11T21:56:26.956Z,81.20
2018-07-11T21:58:55.418Z,81.30
2018-07-11T22:01:23.906Z,81.70
2018-07-11T22:03:52.456Z,81.70
2018-07-11T22:08:49.108Z,82.10
2018-07-11T22:11:17.829Z,82.20
2018-07-11T22:13:46.244Z,82.40
2018-07-11T22:16:14.754Z,82.60
2018-07-11T22:18:44.994Z,82.80
2018-07-11T22:21:13.248Z,83.00
2018-07-11T22:23:40.789Z,83.10
2018-07-11T22:26:08.273Z,83.40
2018-07-11T22:28:35.609Z,83.40
2018-07-11T22:31:02.949Z,83.70
2018-07-11T22:33:30.296Z,83.80
2018-07-11T22:35:57.631Z,83.80
2018-07-11T22:38:25.048Z,84.00
2018-07-11T22:40:52.433Z,84.20
2018-07-11T22:43:19.779Z,84.30
2018-07-11T22:45:47.141Z,84.50
2018-07-11T22:48:14.657Z,84.70
2018-07-11T22:50:42.243Z,84.90
2018-07-11T22:53:09.642Z,84.90
2018-07-11T22:55:36.958Z,85.10
2018-07-11T22:58:04.350Z,85.30
2018-07-11T23:00:32.049Z,85.40
2018-07-11T23:02:59.621Z,85.50
2018-07-11T23:05:27.740Z,85.60
2018-07-11T23:07:55.060Z,85.80
2018-07-11T23:10:22.420Z,85.90
2018-07-11T23:12:49.753Z,86.00
2018-07-11T23:15:17.092Z,86.20
2018-07-11T23:17:44.418Z,86.30
2018-07-11T23:20:11.739Z,86.40
2018-07-11T23:22:39.292Z,86.60
2018-07-11T23:25:06.642Z,86.70
2018-07-11T23:27:34.031Z,86.80
2018-07-11T23:30:01.343Z,87.00
2018-07-11T23:32:28.711Z,87.10
2018-07-11T23:34:56.021Z,87.10
2018-07-11T23:37:23.348Z,87.10
2018-07-11T23:39:51.487Z,87.30
2018-07-11T23:42:18.816Z,87.30
2018-07-11T23:44:46.127Z,87.40
2018-07-11T23:47:13.449Z,87.50
2018-07-11T23:49:40.815Z,87.50
2018-07-11T23:52:08.156Z,87.70
2018-07-11T23:54:35.485Z,87.80
2018-07-11T23:57:02.882Z,87.80
2018-07-11T23:59:30.326Z,88.00
